createdAt,value
2023-02-06T00:01:00.306Z,59.93
2023-02-06T00:03:28.895Z,56.13
2023-02-06T00:05:57.772Z,63.47
2023-02-06T00:08:26.112Z,45.10
2023-02-06T00:10:54.507Z,50.13
2023-02-06T00:13:22.734Z,52.60
2023-02-06T00:15:52.072Z,49.57
2023-02-06T00:18:20.014Z,52.90
2023-02-06T00:20:47.982Z,59.40
2023-02-06T00:23:17.410Z,55.93
2023-02-06T00:25:45.502Z,56.13
2023-02-06T00:28:14.052Z,50.83
2023-02-06T00:30:42.049Z,55.10
2023-02-06T00:33:11.272Z,58.47
2023-02-06T00:35:39.178Z,50.07
2023-02-06T00:38:08.004Z,47.60
2023-02-06T00:40:35.936Z,57.43
2023-02-06T00:43:03.991Z,52.63
2023-02-06T00:45:32.112Z,55.53
2023-02-06T00:48:00.192Z,52.17
2023-02-06T00:50:29.644Z,48.87
2023-02-06T00:52:57.618Z,51.50
2023-02-06T00:55:25.564Z,59.13
2023-02-06T00:57:53.514Z,55.63
2023-02-06T01:00:21.512Z,59.03
2023-02-06T01:02:49.527Z,53.80
2023-02-06T01:05:17.652Z,63.30
2023-02-06T01:07:47.258Z,59.83
2023-02-06T01:10:15.531Z,66.03
2023-02-06T01:12:43.848Z,63.33
2023-02-06T01:15:15.119Z,61.50
2023-02-06T01:17:43.111Z,72.63
2023-02-06T01:20:14.652Z,62.70
2023-02-06T01:22:43.040Z,56.73
2023-02-06T01:25:14.454Z,57.53
2023-02-06T01:27:42.364Z,60.10
2023-02-06T01:30:12.125Z,62.50
2023-02-06T01:32:41.084Z,60.37
2023-02-06T01:35:11.094Z,58.60
2023-02-06T01:37:40.107Z,59.20
2023-02-06T01:40:16.052Z,60.70
2023-02-06T01:42:44.351Z,57.80
2023-02-06T01:45:40.885Z,70.97
2023-02-06T01:48:13.960Z,61.10
2023-02-06T01:50:44.952Z,53.30
2023-02-06T01:53:14.459Z,65.73
2023-02-06T01:55:58.414Z,61.70
2023-02-06T01:58:45.685Z,65.63
2023-02-06T02:01:14.099Z,68.53
2023-02-06T02:03:45.578Z,64.83
2023-02-06T02:06:16.076Z,55.10
2023-02-06T02:08:47.840Z,66.00
2023-02-06T02:11:20.520Z,65.70
2023-02-06T02:13:50.533Z,67.60
2023-02-06T02:16:24.488Z,67.07
2023-02-06T02:19:02.981Z,67.80
2023-02-06T02:22:12.086Z,70.90
2023-02-06T02:25:00.973Z,75.67
2023-02-06T02:27:45.440Z,70.97
2023-02-06T02:30:51.061Z,60.80
2023-02-06T02:33:51.154Z,57.17
2023-02-06T02:36:24.912Z,64.40
2023-02-06T02:39:02.783Z,62.40
2023-02-06T02:41:37.535Z,67.73
2023-02-06T02:44:09.550Z,55.03
2023-02-06T02:46:41.331Z,65.40
2023-02-06T02:49:14.087Z,57.57
2023-02-06T02:51:44.223Z,54.77
2023-02-06T02:54:12.340Z,59.07
2023-02-06T02:56:40.801Z,56.43
2023-02-06T02:59:13.056Z,54.00
2023-02-06T03:01:49.738Z,60.87
2023-02-06T03:04:23.896Z,58.07
2023-02-06T03:07:07.821Z,61.50
2023-02-06T03:09:46.865Z,54.67
2023-02-06T03:12:21.824Z,57.43
2023-02-06T03:14:54.727Z,51.60
2023-02-06T03:17:31.337Z,59.83
2023-02-06T03:20:01.043Z,57.90
2023-02-06T03:22:31.968Z,61.73
2023-02-06T03:25:01.488Z,50.63
2023-02-06T03:27:31.593Z,56.77
2023-02-06T03:30:02.071Z,54.37
2023-02-06T03:32:33.423Z,67.37
2023-02-06T03:35:06.148Z,58.40
2023-02-06T03:37:37.620Z,56.83
2023-02-06T03:40:08.202Z,60.90
2023-02-06T03:42:40.136Z,55.93
2023-02-06T03:45:13.620Z,63.33
2023-02-06T03:47:43.879Z,66.27
2023-02-06T03:50:13.144Z,55.67
2023-02-06T03:52:47.763Z,56.97
2023-02-06T03:55:21.215Z,64.70
2023-02-06T03:57:52.401Z,70.70
2023-02-06T04:00:21.041Z,62.17
2023-02-06T04:02:50.101Z,66.00
2023-02-06T04:05:20.048Z,64.07
2023-02-06T04:07:49.321Z,64.43
2023-02-06T04:10:17.334Z,61.13
2023-02-06T04:12:45.347Z,56.90
2023-02-06T04:15:13.246Z,68.03
2023-02-06T04:17:57.566Z,56.50
2023-02-06T04:20:27.143Z,61.43
2023-02-06T04:22:56.555Z,64.93
2023-02-06T04:25:24.867Z,69.30
2023-02-06T04:27:52.974Z,66.67
2023-02-06T04:30:21.107Z,74.63
2023-02-06T04:32:48.997Z,63.20
2023-02-06T04:35:16.994Z,72.83
2023-02-06T04:37:44.885Z,75.23
2023-02-06T04:40:14.523Z,62.47
2023-02-06T04:42:42.464Z,73.63
2023-02-06T04:45:10.822Z,63.33
2023-02-06T04:47:38.760Z,69.40
2023-02-06T04:50:07.492Z,74.07
2023-02-06T04:52:35.457Z,75.20
2023-02-06T04:55:03.361Z,69.23
2023-02-06T04:57:32.587Z,66.77
2023-02-06T05:00:00.515Z,70.53
2023-02-06T05:02:28.579Z,81.07
2023-02-06T05:04:56.507Z,68.37
2023-02-06T05:07:24.941Z,67.13
2023-02-06T05:09:53.100Z,63.97
2023-02-06T05:12:21.049Z,71.97
2023-02-06T05:14:50.343Z,66.57
2023-02-06T05:17:18.287Z,71.33
2023-02-06T05:19:46.740Z,76.57
2023-02-06T05:22:14.659Z,65.80
2023-02-06T05:24:42.646Z,70.87
2023-02-06T05:27:10.590Z,70.77
2023-02-06T05:29:38.528Z,71.10
2023-02-06T05:32:08.056Z,70.90
2023-02-06T05:34:36.019Z,68.67
2023-02-06T05:37:03.979Z,72.60
2023-02-06T05:39:31.885Z,73.73
2023-02-06T05:41:59.909Z,74.20
2023-02-06T05:44:28.184Z,66.73
2023-02-06T05:46:56.420Z,52.63
2023-02-06T05:49:25.742Z,65.90
2023-02-06T05:51:53.689Z,61.97
2023-02-06T05:54:21.639Z,61.37
2023-02-06T05:56:49.558Z,62.07
2023-02-06T05:59:17.436Z,71.87
2023-02-06T06:01:45.389Z,66.00
2023-02-06T06:04:13.350Z,65.73
2023-02-06T06:06:42.787Z,77.47
2023-02-06T06:09:10.743Z,66.07
2023-02-06T06:11:38.705Z,73.33
2023-02-06T06:14:07.036Z,70.80
2023-02-06T06:16:35.109Z,80.00
2023-02-06T06:19:05.818Z,74.47
2023-02-06T06:21:36.646Z,70.93
2023-02-06T06:24:11.528Z,85.43
2023-02-06T06:26:42.298Z,80.60
2023-02-06T06:29:10.241Z,79.33
2023-02-06T06:31:38.170Z,97.83
2023-02-06T06:34:07.444Z,83.67
2023-02-06T06:36:35.378Z,95.00
2023-02-06T06:39:04.994Z,82.27
2023-02-06T06:41:45.375Z,78.87
2023-02-06T06:44:13.333Z,84.30
2023-02-06T06:46:41.274Z,84.73
2023-02-06T06:49:09.318Z,75.83
2023-02-06T06:51:37.300Z,76.00
2023-02-06T06:54:06.813Z,85.70
2023-02-06T06:56:34.822Z,76.80
2023-02-06T06:59:02.859Z,70.77
2023-02-06T07:01:30.808Z,76.93
2023-02-06T07:03:59.745Z,83.80
2023-02-06T07:06:27.828Z,78.30
2023-02-06T07:08:55.866Z,70.13
2023-02-06T07:11:26.124Z,80.13
2023-02-06T07:13:54.216Z,79.97
2023-02-06T07:16:22.903Z,72.57
2023-02-06T07:18:50.865Z,76.67
2023-02-06T07:21:19.976Z,76.20
2023-02-06T07:23:47.915Z,73.80
2023-02-06T07:26:15.839Z,75.37
2023-02-06T07:28:45.463Z,76.60
2023-02-06T07:31:13.412Z,74.70
2023-02-06T07:33:41.411Z,91.57
2023-02-06T07:36:12.072Z,76.07
2023-02-06T07:38:40.483Z,81.17
2023-02-06T07:41:09.463Z,74.73
2023-02-06T07:43:40.052Z,71.77
2023-02-06T07:46:09.404Z,74.10
2023-02-06T07:48:37.380Z,74.20
2023-02-06T07:51:06.555Z,73.00
2023-02-06T07:53:34.761Z,72.87
2023-02-06T07:56:02.881Z,77.63
2023-02-06T07:58:30.833Z,69.10
2023-02-06T08:01:00.643Z,66.50
2023-02-06T08:03:30.365Z,75.47
2023-02-06T08:05:58.335Z,80.40
2023-02-06T08:08:26.701Z,70.77
2023-02-06T08:10:54.798Z,91.80
2023-02-06T08:13:22.783Z,79.93
2023-02-06T08:15:50.738Z,72.50
2023-02-06T08:18:18.673Z,68.70
2023-02-06T08:20:47.948Z,80.73
2023-02-06T08:23:15.863Z,80.77
2023-02-06T08:25:43.846Z,70.40
2023-02-06T08:28:14.889Z,68.40
2023-02-06T08:30:42.934Z,68.50
2023-02-06T08:33:10.907Z,62.93
2023-02-06T08:35:38.781Z,69.07
2023-02-06T08:38:08.285Z,70.80
2023-02-06T08:40:36.209Z,88.33
2023-02-06T08:43:04.142Z,104.57
2023-02-06T08:45:32.104Z,89.60
2023-02-06T08:48:00.109Z,80.50
2023-02-06T08:50:28.209Z,73.33
2023-02-06T08:52:56.150Z,72.40
2023-02-06T08:55:28.425Z,75.17
2023-02-06T08:57:56.344Z,66.53
2023-02-06T09:00:24.425Z,91.27
2023-02-06T09:02:53.249Z,81.47
2023-02-06T09:05:22.098Z,69.53
2023-02-06T09:07:50.620Z,75.07
2023-02-06T09:10:26.996Z,74.77
2023-02-06T09:12:57.585Z,64.83
2023-02-06T09:15:25.652Z,73.50
2023-02-06T09:17:53.737Z,58.03
2023-02-06T09:20:22.591Z,78.17
2023-02-06T09:22:50.526Z,73.20
2023-02-06T09:25:18.526Z,73.90
2023-02-06T09:27:47.182Z,79.53
2023-02-06T09:30:17.049Z,70.53
2023-02-06T09:32:45.270Z,80.60
2023-02-06T09:35:13.316Z,73.57
2023-02-06T09:37:41.327Z,67.17
2023-02-06T09:40:13.299Z,64.20
2023-02-06T09:42:43.182Z,61.63
2023-02-06T09:45:15.928Z,60.93
2023-02-06T09:47:48.762Z,60.27
2023-02-06T09:50:25.148Z,63.90
2023-02-06T09:53:05.791Z,48.50
2023-02-06T09:55:39.964Z,54.07
2023-02-06T09:58:20.300Z,57.03
2023-02-06T10:00:53.028Z,51.77
2023-02-06T10:03:56.809Z,56.20
2023-02-06T10:06:28.664Z,47.30
2023-02-06T10:09:03.217Z,44.97
2023-02-06T10:11:40.514Z,51.33
2023-02-06T10:14:17.226Z,43.43
2023-02-06T10:16:48.500Z,44.07
2023-02-06T10:19:23.653Z,45.43
2023-02-06T10:21:56.002Z,38.90
2023-02-06T10:24:33.337Z,36.57
2023-02-06T10:27:07.159Z,40.83
2023-02-06T10:29:37.224Z,41.53
2023-02-06T10:32:21.916Z,34.30
2023-02-06T10:35:06.816Z,35.83
2023-02-06T10:38:02.610Z,33.87
2023-02-06T10:40:36.427Z,44.63
2023-02-06T10:43:14.665Z,43.77
2023-02-06T10:45:47.051Z,45.33
2023-02-06T10:48:24.212Z,44.63
2023-02-06T10:50:57.620Z,43.43
2023-02-06T10:53:31.167Z,50.23
2023-02-06T10:56:02.512Z,55.67
2023-02-06T10:58:36.406Z,47.03
2023-02-06T11:01:23.695Z,51.73
2023-02-06T11:03:58.473Z,57.47
2023-02-06T11:06:29.878Z,51.70
2023-02-06T11:08:58.015Z,50.10
2023-02-06T11:11:29.618Z,51.07
2023-02-06T11:14:01.117Z,42.07
2023-02-06T11:16:31.061Z,48.17
2023-02-06T11:19:06.309Z,55.10
2023-02-06T11:21:54.111Z,48.90
2023-02-06T11:24:24.339Z,45.00
2023-02-06T11:26:55.592Z,40.93
2023-02-06T11:29:26.400Z,39.00
2023-02-06T11:31:58.456Z,49.43
2023-02-06T11:34:31.003Z,37.13
2023-02-06T11:37:01.939Z,45.60
2023-02-06T11:39:32.379Z,45.33
2023-02-06T11:42:03.140Z,45.30
2023-02-06T11:44:37.429Z,43.13
2023-02-06T11:47:31.358Z,39.60
2023-02-06T11:50:22.291Z,42.27
2023-02-06T11:52:55.922Z,45.00
2023-02-06T11:55:25.721Z,47.07
2023-02-06T11:58:07.020Z,52.57
2023-02-06T12:00:38.017Z,46.40
2023-02-06T12:03:07.019Z,51.23
2023-02-06T12:05:40.889Z,51.40
2023-02-06T12:08:14.804Z,54.73
2023-02-06T12:10:49.282Z,47.63
2023-02-06T12:13:21.469Z,56.50
2023-02-06T12:15:53.628Z,54.60
2023-02-06T12:18:24.896Z,58.37
2023-02-06T12:20:59.111Z,61.13
2023-02-06T12:23:37.504Z,57.23
2023-02-06T12:26:09.829Z,65.63
2023-02-06T12:28:45.260Z,63.63
2023-02-06T12:31:19.640Z,59.40
2023-02-06T12:33:54.025Z,60.83
2023-02-06T12:36:25.596Z,61.43
2023-02-06T12:38:59.268Z,67.70
2023-02-06T12:41:50.962Z,57.77
2023-02-06T12:44:28.004Z,60.13
2023-02-06T12:47:02.506Z,65.13
2023-02-06T12:49:36.282Z,61.73
2023-02-06T12:52:10.371Z,63.03
2023-02-06T12:54:46.192Z,61.60
2023-02-06T12:57:17.070Z,62.27
2023-02-06T13:00:03.658Z,60.57
2023-02-06T13:02:57.728Z,59.93
2023-02-06T13:05:30.940Z,62.27
2023-02-06T13:08:06.974Z,59.80
2023-02-06T13:10:37.872Z,56.40
2023-02-06T13:13:06.472Z,63.13
2023-02-06T13:15:38.702Z,61.57
2023-02-06T13:18:52.600Z,68.60
2023-02-06T13:21:24.489Z,60.73
2023-02-06T13:24:15.977Z,64.87
2023-02-06T13:27:12.604Z,54.40
2023-02-06T13:29:42.725Z,61.90
2023-02-06T13:32:47.067Z,62.17
2023-02-06T13:35:24.258Z,55.87
2023-02-06T13:38:10.314Z,58.40
2023-02-06T13:40:38.390Z,57.77
2023-02-06T13:43:18.534Z,59.07
2023-02-06T13:45:50.149Z,57.03
2023-02-06T13:48:43.175Z,50.77
2023-02-06T13:51:41.007Z,55.10
2023-02-06T13:54:56.442Z,45.03
2023-02-06T13:57:39.582Z,47.73
2023-02-06T14:00:16.499Z,49.73
2023-02-06T14:02:48.680Z,41.07
2023-02-06T14:05:20.523Z,40.87
2023-02-06T14:08:00.774Z,41.70
2023-02-06T14:11:09.666Z,39.90
2023-02-06T14:13:49.308Z,40.90
2023-02-06T14:16:33.124Z,36.50
2023-02-06T14:19:04.366Z,53.40
2023-02-06T14:21:41.500Z,56.93
2023-02-06T14:24:36.651Z,56.87
2023-02-06T14:27:18.678Z,67.70
2023-02-06T14:29:53.260Z,60.73
2023-02-06T14:32:36.099Z,79.47
2023-02-06T14:35:17.678Z,83.13
2023-02-06T14:38:04.635Z,75.20
2023-02-06T14:40:36.573Z,84.57
2023-02-06T14:43:08.582Z,93.90
2023-02-06T14:45:41.964Z,103.47
2023-02-06T14:48:19.593Z,101.50
2023-02-06T14:50:50.693Z,102.47
2023-02-06T14:53:22.912Z,110.10
2023-02-06T14:55:50.912Z,129.10
2023-02-06T14:58:21.683Z,132.23
2023-02-06T15:00:49.824Z,138.43
2023-02-06T15:03:22.304Z,134.07
2023-02-06T15:06:01.303Z,146.40
2023-02-06T15:08:30.976Z,160.47
2023-02-06T15:11:00.884Z,158.07
2023-02-06T15:13:35.038Z,155.67
2023-02-06T15:16:05.651Z,147.53
2023-02-06T15:18:36.518Z,147.90
2023-02-06T15:21:06.559Z,149.33
2023-02-06T15:23:45.712Z,154.93
2023-02-06T15:26:24.104Z,145.70
2023-02-06T15:28:58.886Z,153.17
2023-02-06T15:31:28.001Z,149.80
2023-02-06T15:34:00.647Z,160.87
2023-02-06T15:36:31.900Z,151.53
2023-02-06T15:39:00.501Z,149.17
2023-02-06T15:41:30.976Z,141.90
2023-02-06T15:44:02.644Z,154.60
2023-02-06T15:46:31.914Z,147.57
2023-02-06T15:49:01.415Z,153.50
2023-02-06T15:51:31.371Z,157.67
2023-02-06T15:54:10.696Z,160.20
2023-02-06T15:56:41.678Z,160.87
2023-02-06T15:59:20.421Z,163.83
2023-02-06T16:01:49.158Z,169.20
2023-02-06T16:04:24.254Z,156.40
2023-02-06T16:07:04.151Z,146.83
2023-02-06T16:09:33.270Z,156.40
2023-02-06T16:12:01.291Z,156.63
2023-02-06T16:14:35.158Z,165.80
2023-02-06T16:17:06.696Z,162.77
2023-02-06T16:19:42.290Z,161.37
2023-02-06T16:22:18.125Z,181.83
2023-02-06T16:24:46.801Z,165.67
2023-02-06T16:27:20.751Z,170.43
2023-02-06T16:29:51.806Z,155.10
2023-02-06T16:32:23.880Z,160.17
2023-02-06T16:34:53.622Z,151.87
2023-02-06T16:37:24.130Z,155.13
2023-02-06T16:39:52.639Z,156.03
2023-02-06T16:42:22.894Z,158.03
2023-02-06T16:44:53.269Z,161.57
2023-02-06T16:47:22.985Z,141.33
2023-02-06T16:49:52.175Z,141.10
2023-02-06T16:52:25.520Z,137.00
2023-02-06T16:54:55.782Z,146.43
2023-02-06T16:57:31.525Z,149.73
2023-02-06T17:00:00.064Z,147.83
2023-02-06T17:02:28.616Z,148.07
2023-02-06T17:05:17.665Z,145.23
2023-02-06T17:07:49.122Z,147.37
2023-02-06T17:10:19.600Z,158.47
2023-02-06T17:12:48.766Z,142.83
2023-02-06T17:15:18.745Z,149.07
2023-02-06T17:17:47.286Z,150.73
2023-02-06T17:20:25.500Z,164.07
2023-02-06T17:22:54.966Z,149.03
2023-02-06T17:25:23.170Z,140.80
2023-02-06T17:27:51.270Z,149.83
2023-02-06T17:30:21.439Z,159.03
2023-02-06T17:32:50.002Z,153.83
2023-02-06T17:35:18.967Z,131.50
2023-02-06T17:37:47.528Z,135.97
2023-02-06T17:40:21.813Z,130.67
2023-02-06T17:43:12.430Z,128.50
2023-02-06T17:45:41.289Z,131.20
2023-02-06T17:48:09.784Z,135.07
2023-02-06T17:50:38.541Z,129.07
2023-02-06T17:53:07.179Z,131.87
2023-02-06T17:55:37.241Z,133.60
2023-02-06T17:58:05.889Z,134.97
2023-02-06T18:00:34.291Z,133.03
2023-02-06T18:03:02.810Z,132.80
2023-02-06T18:05:31.141Z,130.20
2023-02-06T18:07:59.212Z,129.93
2023-02-06T18:10:27.295Z,126.47
2023-02-06T18:12:56.857Z,128.53
2023-02-06T18:15:25.012Z,138.37
2023-02-06T18:18:57.318Z,136.73
2023-02-06T18:22:03.145Z,136.37
2023-02-06T18:24:31.138Z,131.93
2023-02-06T18:27:03.079Z,124.17
2023-02-06T18:29:47.607Z,128.20
2023-02-06T18:32:19.235Z,145.73
2023-02-06T18:34:47.634Z,141.17
2023-02-06T18:37:15.726Z,166.00
2023-02-06T18:39:44.193Z,161.23
2023-02-06T18:42:30.971Z,143.63
2023-02-06T18:45:02.137Z,149.00
2023-02-06T18:47:31.827Z,132.47
2023-02-06T18:49:59.779Z,127.53
2023-02-06T18:52:27.978Z,138.30
2023-02-06T18:54:55.966Z,133.07
2023-02-06T18:57:23.941Z,118.50
2023-02-06T18:59:52.125Z,117.33
2023-02-06T19:02:21.781Z,110.10
2023-02-06T19:04:50.136Z,102.03
2023-02-06T19:07:18.480Z,107.23
2023-02-06T19:09:46.669Z,110.37
2023-02-06T19:12:14.794Z,100.90
2023-02-06T19:14:42.771Z,101.10
2023-02-06T19:17:10.942Z,91.70
2023-02-06T19:19:40.504Z,99.43
2023-02-06T19:22:08.733Z,93.03
2023-02-06T19:24:37.008Z,92.83
2023-02-06T19:27:05.637Z,99.33
2023-02-06T19:29:36.207Z,92.33
2023-02-06T19:32:05.382Z,98.07
2023-02-06T19:34:36.308Z,97.50
2023-02-06T19:37:06.983Z,89.33
2023-02-06T19:39:37.233Z,92.77
2023-02-06T19:42:06.797Z,91.23
2023-02-06T19:44:35.601Z,91.50
2023-02-06T19:47:04.023Z,95.13
2023-02-06T19:49:32.492Z,86.43
2023-02-06T19:52:02.186Z,95.80
2023-02-06T19:54:31.818Z,103.20
2023-02-06T19:57:00.807Z,104.33
2023-02-06T19:59:30.393Z,93.37
2023-02-06T20:02:00.166Z,97.00
2023-02-06T20:04:30.512Z,90.87
2023-02-06T20:06:58.860Z,89.33
2023-02-06T20:09:28.483Z,96.90
2023-02-06T20:11:58.210Z,100.67
2023-02-06T20:14:27.858Z,92.90
2023-02-06T20:16:55.999Z,96.93
2023-02-06T20:19:26.901Z,93.50
2023-02-06T20:21:58.180Z,84.10
2023-02-06T20:24:27.798Z,92.03
2023-02-06T20:26:59.586Z,92.60
2023-02-06T20:29:30.194Z,91.87
2023-02-06T20:31:59.170Z,83.57
2023-02-06T20:34:28.685Z,85.90
2023-02-06T20:36:57.927Z,80.50
2023-02-06T20:39:26.793Z,87.70
2023-02-06T20:41:57.311Z,80.93
2023-02-06T20:44:25.379Z,96.00
2023-02-06T20:46:53.717Z,96.07
2023-02-06T20:49:23.551Z,86.50
2023-02-06T20:51:52.124Z,87.83
2023-02-06T20:54:21.210Z,96.37
2023-02-06T20:56:49.511Z,85.77
2023-02-06T20:59:20.785Z,96.33
2023-02-06T21:01:49.106Z,95.97
2023-02-06T21:04:18.390Z,97.13
2023-02-06T21:06:48.052Z,87.67
2023-02-06T21:09:16.752Z,81.80
2023-02-06T21:11:46.426Z,80.07
2023-02-06T21:14:15.704Z,89.50
2023-02-06T21:16:45.254Z,99.60
2023-02-06T21:19:16.351Z,87.97
2023-02-06T21:21:46.384Z,97.97
2023-02-06T21:24:15.097Z,78.03
2023-02-06T21:26:43.981Z,88.97
2023-02-06T21:29:13.963Z,89.77
2023-02-06T21:31:42.283Z,82.40
2023-02-06T21:34:15.373Z,84.43
2023-02-06T21:36:44.221Z,86.43
2023-02-06T21:39:15.500Z,83.03
2023-02-06T21:41:43.714Z,100.53
2023-02-06T21:44:11.816Z,107.27
2023-02-06T21:46:40.393Z,110.53
2023-02-06T21:49:11.550Z,111.27
2023-02-06T21:51:41.104Z,131.27
2023-02-06T21:54:09.503Z,125.73
2023-02-06T21:56:39.039Z,109.20
2023-02-06T21:59:07.417Z,109.17
2023-02-06T22:01:35.917Z,121.30
2023-02-06T22:04:05.112Z,110.53
2023-02-06T22:06:36.837Z,113.53
2023-02-06T22:09:08.486Z,104.20
2023-02-06T22:11:39.033Z,95.50
2023-02-06T22:14:09.118Z,103.63
2023-02-06T22:16:37.333Z,89.70
2023-02-06T22:19:06.219Z,94.20
2023-02-06T22:21:35.532Z,92.83
2023-02-06T22:24:07.848Z,93.13
2023-02-06T22:26:38.746Z,96.37
2023-02-06T22:29:08.322Z,91.57
2023-02-06T22:31:37.512Z,90.97
2023-02-06T22:34:05.656Z,88.73
2023-02-06T22:36:34.560Z,97.37
2023-02-06T22:39:07.465Z,82.13
2023-02-06T22:41:35.743Z,93.70
2023-02-06T22:44:03.986Z,78.30
2023-02-06T22:46:33.769Z,89.90
2023-02-06T22:49:02.252Z,79.77
2023-02-06T22:51:30.444Z,89.67
2023-02-06T22:53:58.407Z,88.97
2023-02-06T22:56:31.262Z,92.20
2023-02-06T22:59:01.240Z,84.77
2023-02-06T23:01:31.886Z,89.77
2023-02-06T23:04:01.203Z,97.80
2023-02-06T23:06:30.404Z,83.70
2023-02-06T23:08:59.382Z,88.17
2023-02-06T23:11:31.408Z,99.93
2023-02-06T23:14:01.401Z,98.37
2023-02-06T23:16:30.921Z,102.90
2023-02-06T23:18:59.115Z,104.83
2023-02-06T23:21:27.636Z,91.00
2023-02-06T23:23:56.030Z,101.47
2023-02-06T23:26:24.528Z,101.23
2023-02-06T23:28:53.987Z,86.13
2023-02-06T23:31:22.004Z,88.00
2023-02-06T23:33:50.033Z,99.67
2023-02-06T23:36:20.487Z,103.33
2023-02-06T23:38:48.905Z,96.77
2023-02-06T23:41:18.796Z,99.80
2023-02-06T23:43:50.805Z,95.10
2023-02-06T23:46:21.127Z,81.97
2023-02-06T23:48:49.578Z,84.27
2023-02-06T23:51:18.750Z,83.13
2023-02-06T23:53:46.743Z,89.60
2023-02-06T23:56:16.524Z,79.00
2023-02-06T23:58:44.848Z,85.87
